createdAt,value
2022-08-22T04:46:01.445Z,12.75
2022-08-22T04:47:02.412Z,12.82
2022-08-22T04:48:02.371Z,12.82
2022-08-22T04:49:02.384Z,12.85
2022-08-22T04:50:02.349Z,12.90
2022-08-22T04:51:02.351Z,12.93
2022-08-22T04:52:02.360Z,12.97
2022-08-22T04:53:02.332Z,13.04
2022-08-22T04:54:02.329Z,13.10
2022-08-22T04:55:02.306Z,13.15
2022-08-22T04:56:06.775Z,13.20
2022-08-22T04:57:02.288Z,13.30
2022-08-22T04:58:02.266Z,13.36
2022-08-22T04:59:03.064Z,13.44
2022-08-22T05:00:02.243Z,13.49
2022-08-22T05:01:02.264Z,13.51
2022-08-22T05:02:02.315Z,13.57
2022-08-22T05:03:02.219Z,13.63
2022-08-22T05:04:02.219Z,13.63
2022-08-22T05:05:02.190Z,13.67
2022-08-22T05:06:02.181Z,13.69
2022-08-22T05:07:02.170Z,13.70
2022-08-22T05:08:02.158Z,13.73
2022-08-22T05:09:02.162Z,13.73
2022-08-22T05:10:12.071Z,13.73
2022-08-22T05:11:02.131Z,13.69
2022-08-22T05:12:02.112Z,13.66
2022-08-22T05:13:02.107Z,13.67
2022-08-22T05:14:02.103Z,13.63
2022-08-22T05:15:02.082Z,13.64
2022-08-22T05:16:02.065Z,13.67
2022-08-22T05:17:02.062Z,13.69
2022-08-22T05:18:02.053Z,13.71
2022-08-22T05:19:02.054Z,13.77
2022-08-22T05:20:02.022Z,13.75
2022-08-22T05:21:02.015Z,13.79
2022-08-22T05:22:02.001Z,13.82
2022-08-22T05:23:01.994Z,13.88
2022-08-22T05:24:02.059Z,13.92
2022-08-22T05:25:01.970Z,13.96
2022-08-22T05:26:01.954Z,14.02
2022-08-22T05:27:01.947Z,14.06
2022-08-22T05:28:01.934Z,14.12
2022-08-22T05:29:01.935Z,14.18
2022-08-22T05:30:01.906Z,14.22
2022-08-22T05:31:01.905Z,14.32
2022-08-22T05:32:01.885Z,14.39
2022-08-22T05:33:01.883Z,14.46
2022-08-22T05:34:01.882Z,14.54
2022-08-22T05:35:01.854Z,14.62
2022-08-22T05:36:01.841Z,14.69
2022-08-22T05:37:01.836Z,14.75
2022-08-22T05:38:01.819Z,14.81
2022-08-22T05:39:01.828Z,14.83
2022-08-22T05:40:01.873Z,14.83
2022-08-22T05:41:01.789Z,14.88
2022-08-22T05:42:01.776Z,14.89
2022-08-22T05:43:01.775Z,14.92
2022-08-22T05:44:01.772Z,14.94
2022-08-22T05:45:01.748Z,14.98
2022-08-22T05:46:01.732Z,15.03
2022-08-22T05:47:01.727Z,15.06
2022-08-22T05:48:01.708Z,15.07
2022-08-22T05:49:01.719Z,15.10
2022-08-22T05:50:01.690Z,15.16
2022-08-22T05:51:01.682Z,15.19
2022-08-22T05:52:01.669Z,15.32
2022-08-22T05:53:01.663Z,15.44
2022-08-22T05:54:01.662Z,15.54
2022-08-22T05:55:01.636Z,15.64
2022-08-22T05:56:01.624Z,15.71
2022-08-22T05:57:04.927Z,15.78
2022-08-22T05:58:01.614Z,15.90
2022-08-22T05:59:01.603Z,16.04
2022-08-22T06:00:01.579Z,16.09
2022-08-22T06:01:01.578Z,16.23
2022-08-22T06:02:01.735Z,16.28
2022-08-22T06:03:01.553Z,16.42
2022-08-22T06:04:01.551Z,16.48
2022-08-22T06:05:01.535Z,16.52
2022-08-22T06:06:01.516Z,16.60
2022-08-22T06:07:01.507Z,16.73
2022-08-22T06:08:01.537Z,16.79
2022-08-22T06:09:01.498Z,16.86
2022-08-22T06:10:01.479Z,16.98
2022-08-22T06:11:01.461Z,17.07
2022-08-22T06:12:01.458Z,17.06
2022-08-22T06:13:01.444Z,17.06
2022-08-22T06:14:01.435Z,17.15
2022-08-22T06:15:01.428Z,17.26
2022-08-22T06:16:01.411Z,17.36
2022-08-22T06:17:01.398Z,17.44
2022-08-22T06:18:01.387Z,17.49
2022-08-22T06:19:01.374Z,17.54
2022-08-22T06:20:01.385Z,17.62
2022-08-22T06:21:01.369Z,17.58
2022-08-22T06:22:01.358Z,17.62
2022-08-22T06:23:01.332Z,17.62
2022-08-22T06:24:01.325Z,17.64
2022-08-22T06:25:01.324Z,17.64
2022-08-22T06:26:01.321Z,17.66
2022-08-22T06:27:01.292Z,17.74
2022-08-22T06:28:01.286Z,17.66
2022-08-22T06:29:01.268Z,17.70
2022-08-22T06:30:01.278Z,17.75
2022-08-22T06:31:01.256Z,17.78
2022-08-22T06:32:01.239Z,17.84
2022-08-22T06:33:01.258Z,17.89
2022-08-22T06:34:01.218Z,17.96
2022-08-22T06:35:01.221Z,17.93
2022-08-22T06:36:01.195Z,18.02
2022-08-22T06:37:01.178Z,18.03
2022-08-22T06:38:01.182Z,18.12
2022-08-22T06:39:01.162Z,18.17
2022-08-22T06:40:01.224Z,18.18
2022-08-22T06:41:01.138Z,18.21
2022-08-22T06:42:01.133Z,18.23
2022-08-22T06:43:01.114Z,18.26
2022-08-22T06:44:01.109Z,18.21
2022-08-22T06:45:01.108Z,18.20
2022-08-22T06:46:01.089Z,18.18
2022-08-22T06:47:01.072Z,18.26
2022-08-22T06:48:01.238Z,18.23
2022-08-22T06:49:01.044Z,18.27
2022-08-22T06:50:01.061Z,18.30
2022-08-22T06:51:01.029Z,18.35
2022-08-22T06:52:01.028Z,18.45
2022-08-22T06:53:01.012Z,18.48
2022-08-22T06:54:01.001Z,18.60
2022-08-22T06:55:00.997Z,18.65
2022-08-22T06:56:00.979Z,18.65
2022-08-22T06:57:00.960Z,18.62
2022-08-22T06:58:01.062Z,18.57
2022-08-22T06:59:00.942Z,18.58
2022-08-22T07:00:00.952Z,18.65
2022-08-22T07:01:11.992Z,18.70
2022-08-22T07:02:00.989Z,18.78
2022-08-22T07:03:00.903Z,18.90
2022-08-22T07:04:00.892Z,18.92
2022-08-22T07:05:00.891Z,18.98
2022-08-22T07:06:00.869Z,18.98
2022-08-22T07:07:00.852Z,19.11
2022-08-22T07:08:01.053Z,19.11
2022-08-22T07:09:06.264Z,19.11
2022-08-22T07:10:00.854Z,19.22
2022-08-22T07:11:00.811Z,19.31
2022-08-22T07:12:00.802Z,19.39
2022-08-22T07:13:00.788Z,19.41
2022-08-22T07:14:00.784Z,19.50
2022-08-22T07:15:00.768Z,19.59
2022-08-22T07:16:00.775Z,19.58
2022-08-22T07:17:00.746Z,19.65
2022-08-22T07:18:00.876Z,19.71
2022-08-22T07:19:00.727Z,19.80
2022-08-22T07:20:00.728Z,19.94
2022-08-22T07:21:00.714Z,19.95
2022-08-22T07:22:00.695Z,19.98
2022-08-22T07:23:00.679Z,20.06
2022-08-22T07:24:00.674Z,20.16
2022-08-22T07:25:00.656Z,20.24
2022-08-22T07:26:00.675Z,20.32
2022-08-22T07:27:00.639Z,20.41
2022-08-22T07:28:00.800Z,20.41
2022-08-22T07:29:00.612Z,20.47
2022-08-22T07:30:00.609Z,20.59
2022-08-22T07:31:00.605Z,20.67
2022-08-22T07:32:00.586Z,20.85
2022-08-22T07:33:19.004Z,21.04
2022-08-22T07:34:00.571Z,21.24
2022-08-22T07:35:00.551Z,21.38
2022-08-22T07:36:00.558Z,21.40
2022-08-22T07:37:00.574Z,21.49
2022-08-22T07:38:00.874Z,21.61
2022-08-22T07:39:00.507Z,21.67
2022-08-22T07:40:00.532Z,21.69
2022-08-22T07:41:00.500Z,21.68
2022-08-22T07:42:00.483Z,21.62
2022-08-22T07:43:00.467Z,21.58
2022-08-22T07:44:00.462Z,21.62
2022-08-22T07:45:00.457Z,21.69
2022-08-22T07:46:00.454Z,21.67
2022-08-22T07:47:00.427Z,21.68
2022-08-22T07:48:00.613Z,21.71
2022-08-22T07:49:09.158Z,21.79
2022-08-22T07:50:00.403Z,21.88
2022-08-22T07:51:00.396Z,22.03
2022-08-22T07:52:00.376Z,22.10
2022-08-22T07:53:00.356Z,22.21
2022-08-22T07:54:01.065Z,22.25
2022-08-22T07:55:00.333Z,22.27
2022-08-22T07:56:00.343Z,22.39
2022-08-22T07:57:00.319Z,22.46
2022-08-22T07:58:00.462Z,22.47
2022-08-22T07:59:00.298Z,22.58
2022-08-22T08:00:00.284Z,22.47
2022-08-22T08:01:00.329Z,22.57
2022-08-22T08:02:00.264Z,22.65
2022-08-22T08:03:00.247Z,22.82
2022-08-22T08:04:00.241Z,22.97
2022-08-22T08:05:00.240Z,23.12
2022-08-22T08:06:00.237Z,23.32
2022-08-22T08:07:00.211Z,23.50
2022-08-22T08:08:00.391Z,23.80
2022-08-22T08:09:00.185Z,24.08
2022-08-22T08:10:00.173Z,24.28
2022-08-22T08:11:00.173Z,24.60
2022-08-22T08:12:00.151Z,25.06
2022-08-22T08:13:02.434Z,25.33
2022-08-22T08:14:00.135Z,25.92
2022-08-22T08:15:00.115Z,26.50
2022-08-22T08:16:00.126Z,26.62
2022-08-22T08:17:00.098Z,26.75
2022-08-22T08:18:00.259Z,27.13
2022-08-22T08:19:00.077Z,27.41
2022-08-22T08:20:00.072Z,27.13
2022-08-22T08:21:00.073Z,27.17
2022-08-22T08:22:00.044Z,27.41
2022-08-22T08:23:00.026Z,27.62
2022-08-22T08:24:00.049Z,27.50
2022-08-22T08:25:00.012Z,28.29
2022-08-22T08:26:00.016Z,28.93
2022-08-22T08:26:59.991Z,28.86
2022-08-22T08:27:59.990Z,29.04
2022-08-22T08:28:59.963Z,29.12
2022-08-22T08:29:59.963Z,29.58
2022-08-22T08:30:59.956Z,29.78
2022-08-22T08:31:59.938Z,30.15
2022-08-22T08:33:25.737Z,29.36
2022-08-22T08:33:59.923Z,29.80
2022-08-22T08:34:59.903Z,30.02
2022-08-22T08:36:02.909Z,30.49
2022-08-22T08:36:59.882Z,30.83
2022-08-22T08:38:00.080Z,31.04
2022-08-22T08:38:59.864Z,31.26
2022-08-22T08:39:59.902Z,31.13
2022-08-22T08:40:59.851Z,30.82
2022-08-22T08:41:59.835Z,31.10
2022-08-22T08:42:59.819Z,30.45
2022-08-22T08:43:59.811Z,30.29
2022-08-22T08:44:59.799Z,30.47
2022-08-22T08:45:59.813Z,31.28
2022-08-22T08:46:59.774Z,30.95
2022-08-22T08:47:59.905Z,30.73
2022-08-22T08:48:59.751Z,31.34
2022-08-22T08:49:59.747Z,31.85
2022-08-22T08:50:59.736Z,32.21
2022-08-22T08:51:59.741Z,32.33
2022-08-22T08:52:59.706Z,32.52
2022-08-22T08:53:59.705Z,32.65
2022-08-22T08:54:59.691Z,31.70
2022-08-22T08:55:59.673Z,30.75
2022-08-22T08:56:59.709Z,30.92
2022-08-22T08:58:06.644Z,31.58
2022-08-22T08:58:59.651Z,31.88
2022-08-22T08:59:59.642Z,32.26
2022-08-22T09:00:59.651Z,32.89
2022-08-22T09:01:59.633Z,33.49
2022-08-22T09:02:59.605Z,33.63
2022-08-22T09:03:59.605Z,33.18
2022-08-22T09:04:59.590Z,33.14
2022-08-22T09:05:59.579Z,32.51
2022-08-22T09:07:01.530Z,32.41
2022-08-22T09:07:59.742Z,31.85
2022-08-22T09:08:59.541Z,31.10
2022-08-22T09:09:59.536Z,30.13
2022-08-22T09:10:59.517Z,30.32
2022-08-22T09:11:59.527Z,30.70
2022-08-22T09:13:11.650Z,31.12
2022-08-22T09:13:59.498Z,31.23
2022-08-22T09:14:59.475Z,30.76
2022-08-22T09:16:05.170Z,29.61
2022-08-22T09:16:59.475Z,28.78
2022-08-22T09:17:59.640Z,28.49
2022-08-22T09:18:59.434Z,28.67
2022-08-22T09:19:59.425Z,28.36
2022-08-22T09:20:59.411Z,28.33
2022-08-22T09:21:59.413Z,28.31
2022-08-22T09:22:59.384Z,27.85
2022-08-22T09:23:59.386Z,27.92
2022-08-22T09:24:59.362Z,28.33
2022-08-22T09:25:59.357Z,28.51
2022-08-22T09:26:59.352Z,28.77
2022-08-22T09:27:59.484Z,28.19
2022-08-22T09:28:59.338Z,27.88
2022-08-22T09:29:59.703Z,27.72
2022-08-22T09:40:30.060Z,28.14
2022-08-22T09:41:30.042Z,28.58
2022-08-22T09:42:30.050Z,29.00
2022-08-22T09:43:30.020Z,29.36
2022-08-22T09:44:30.017Z,30.02
2022-08-22T09:45:29.996Z,30.54
2022-08-22T09:46:31.477Z,30.94
2022-08-22T09:47:32.773Z,31.17
2022-08-22T09:48:29.972Z,30.75
2022-08-22T09:49:29.954Z,31.16
2022-08-22T09:50:29.949Z,31.48
2022-08-22T09:51:31.603Z,32.50
2022-08-22T09:52:33.808Z,33.09
2022-08-22T09:53:29.916Z,32.99
2022-08-22T09:54:31.545Z,32.99
2022-08-22T09:55:35.157Z,33.59
2022-08-22T09:56:29.888Z,33.81
2022-08-22T09:57:29.882Z,34.47
2022-08-22T09:58:29.871Z,34.13
2022-08-22T09:59:29.843Z,33.23
2022-08-22T10:00:29.853Z,33.06
2022-08-22T10:01:32.777Z,32.94
2022-08-22T10:02:30.102Z,32.51
2022-08-22T10:03:30.416Z,32.78
2022-08-22T10:04:29.793Z,33.41
2022-08-22T10:05:40.836Z,33.63
2022-08-22T10:06:29.776Z,33.66
2022-08-22T10:07:29.767Z,32.45
2022-08-22T10:08:29.850Z,32.56
2022-08-22T10:09:31.948Z,32.93
2022-08-22T10:10:29.732Z,32.40
2022-08-22T10:11:29.714Z,32.56
2022-08-22T10:12:33.860Z,33.39
2022-08-22T10:13:29.730Z,34.25
2022-08-22T10:14:29.692Z,34.70
2022-08-22T10:15:29.673Z,35.14
2022-08-22T10:16:29.680Z,35.29
2022-08-22T10:17:29.672Z,33.59
2022-08-22T10:18:29.651Z,32.59
2022-08-22T10:19:29.646Z,32.67
2022-08-22T10:20:29.632Z,32.43
2022-08-22T10:21:29.615Z,32.25
2022-08-22T10:22:30.258Z,32.81
2022-08-22T10:23:29.596Z,33.32
2022-08-22T10:24:29.593Z,33.54
2022-08-22T10:25:29.575Z,33.82
2022-08-22T10:26:29.578Z,33.98
2022-08-22T10:27:29.567Z,33.35
2022-08-22T10:28:29.552Z,32.15
2022-08-22T10:29:29.532Z,32.06
2022-08-22T10:30:29.530Z,32.75
2022-08-22T10:31:29.519Z,33.65
2022-08-22T10:32:29.517Z,33.84
2022-08-22T10:33:29.498Z,34.27
2022-08-22T10:34:29.483Z,33.14
2022-08-22T10:35:29.477Z,33.56
2022-08-22T10:36:29.466Z,33.90
2022-08-22T10:37:29.475Z,34.27
2022-08-22T10:38:29.443Z,34.73
2022-08-22T10:39:29.441Z,34.91
2022-08-22T10:40:29.436Z,34.62
2022-08-22T10:41:29.424Z,34.56
2022-08-22T10:42:35.113Z,34.13
2022-08-22T10:43:29.401Z,33.54
2022-08-22T10:44:29.383Z,33.78
2022-08-22T10:45:35.670Z,33.53
2022-08-22T10:46:29.364Z,33.34
2022-08-22T10:47:29.353Z,33.56
2022-08-22T10:48:29.351Z,33.49
2022-08-22T10:49:29.344Z,33.72
2022-08-22T10:50:31.165Z,34.32
2022-08-22T10:51:29.315Z,34.40
2022-08-22T10:52:29.297Z,34.62
2022-08-22T10:53:29.779Z,35.07
2022-08-22T10:54:29.277Z,35.56
2022-08-22T10:55:29.275Z,35.40
2022-08-22T10:56:29.257Z,34.52
2022-08-22T10:57:29.253Z,34.87
2022-08-22T10:58:29.251Z,34.25
2022-08-22T10:59:29.231Z,34.10
2022-08-22T11:00:29.216Z,34.31
2022-08-22T11:01:41.007Z,35.00
2022-08-22T11:02:29.206Z,35.03
2022-08-22T11:03:29.208Z,34.42
2022-08-22T11:04:29.175Z,34.21
2022-08-22T11:05:29.170Z,34.03
2022-08-22T11:06:29.157Z,34.42
2022-08-22T11:07:29.150Z,34.32
2022-08-22T11:08:29.148Z,34.44
2022-08-22T11:09:31.201Z,34.66
2022-08-22T11:10:29.120Z,34.61
2022-08-22T11:11:32.636Z,34.96
2022-08-22T11:12:34.896Z,35.34
2022-08-22T11:13:29.105Z,35.14
2022-08-22T11:14:29.077Z,34.43
2022-08-22T11:15:34.960Z,33.82
2022-08-22T11:16:29.061Z,33.94
2022-08-22T11:17:32.345Z,34.12
2022-08-22T11:18:29.052Z,33.84
2022-08-22T11:19:29.031Z,33.71
2022-08-22T11:20:29.002Z,34.13
2022-08-22T11:21:29.012Z,34.99
2022-08-22T11:22:28.990Z,35.00
2022-08-22T11:23:29.004Z,34.69
2022-08-22T11:24:35.400Z,34.88
2022-08-22T11:25:38.453Z,34.40
2022-08-22T11:26:33.705Z,34.12
2022-08-22T11:27:33.547Z,33.32
2022-08-22T11:28:28.977Z,31.41
2022-08-22T11:29:28.925Z,31.48
2022-08-22T11:30:28.908Z,31.95
2022-08-22T11:31:31.612Z,32.51
2022-08-22T11:32:28.889Z,31.36
2022-08-22T11:33:46.445Z,30.80
2022-08-22T11:34:28.874Z,31.58
2022-08-22T11:35:28.862Z,32.52
2022-08-22T11:36:31.161Z,33.07
2022-08-22T11:37:42.816Z,33.00
2022-08-22T11:38:32.822Z,33.60
2022-08-22T11:39:28.823Z,34.43
2022-08-22T11:40:28.867Z,34.87
2022-08-22T11:41:28.801Z,35.25
2022-08-22T11:42:29.624Z,35.38
2022-08-22T11:43:28.792Z,35.36
2022-08-22T11:44:28.766Z,35.23
2022-08-22T11:45:28.765Z,35.03
2022-08-22T11:46:28.742Z,35.04
2022-08-22T11:47:28.766Z,33.88
2022-08-22T11:48:28.742Z,33.38
2022-08-22T11:49:28.723Z,33.11
2022-08-22T11:50:28.711Z,33.31
2022-08-22T11:51:28.702Z,33.18
2022-08-22T11:52:28.691Z,33.79
2022-08-22T11:53:28.681Z,34.81
2022-08-22T11:54:31.073Z,35.40
2022-08-22T11:55:32.974Z,35.41
2022-08-22T11:56:28.648Z,35.19
2022-08-22T11:57:28.635Z,35.14
2022-08-22T11:58:29.171Z,34.99
2022-08-22T11:59:28.617Z,35.02
2022-08-22T12:00:28.604Z,34.39
2022-08-22T12:01:34.359Z,33.86
2022-08-22T12:02:28.667Z,33.59
2022-08-22T12:03:28.589Z,34.22
2022-08-22T12:04:28.579Z,33.07
2022-08-22T12:05:28.559Z,32.07
2022-08-22T12:06:28.543Z,32.59
2022-08-22T12:07:28.541Z,32.99
2022-08-22T12:08:28.549Z,33.63
2022-08-22T12:09:29.825Z,34.12
2022-08-22T12:10:28.496Z,34.66
2022-08-22T12:11:28.493Z,35.26
2022-08-22T12:12:28.478Z,35.94
2022-08-22T12:13:35.040Z,36.38
2022-08-22T12:14:28.464Z,36.37
2022-08-22T12:15:28.591Z,35.97
2022-08-22T12:16:28.438Z,36.01
2022-08-22T12:17:55.099Z,36.35
2022-08-22T12:18:28.437Z,36.84
2022-08-22T12:19:28.411Z,37.21
2022-08-22T12:20:28.398Z,37.10
2022-08-22T12:21:28.392Z,36.62
2022-08-22T12:22:28.852Z,35.26
2022-08-22T12:23:40.783Z,35.36
2022-08-22T12:24:28.363Z,35.50
2022-08-22T12:25:28.348Z,35.02
2022-08-22T12:26:28.341Z,35.31
2022-08-22T12:27:29.277Z,35.80
2022-08-22T12:28:28.326Z,36.19
2022-08-22T12:29:34.068Z,36.07
2022-08-22T12:30:28.304Z,36.32
2022-08-22T12:31:28.290Z,36.60
2022-08-22T12:32:28.277Z,36.50
2022-08-22T12:33:28.269Z,35.70
2022-08-22T12:34:28.265Z,36.07
2022-08-22T12:35:30.320Z,36.20
2022-08-22T12:36:28.233Z,35.10
2022-08-22T12:37:28.225Z,33.53
2022-08-22T12:38:30.662Z,33.35
2022-08-22T12:39:28.225Z,32.81
2022-08-22T12:40:28.246Z,32.96
2022-08-22T12:41:35.240Z,32.56
2022-08-22T12:42:28.209Z,31.17
2022-08-22T12:43:28.170Z,31.46
2022-08-22T12:44:28.172Z,32.38
2022-08-22T12:45:28.153Z,32.87
2022-08-22T12:46:28.319Z,33.78
2022-08-22T12:47:28.134Z,34.53
2022-08-22T12:48:28.112Z,35.07
2022-08-22T12:49:28.118Z,33.81
2022-08-22T12:50:28.092Z,34.85
2022-08-22T12:51:29.482Z,34.88
2022-08-22T12:52:28.068Z,35.55
2022-08-22T12:53:28.305Z,35.33
2022-08-22T12:54:28.067Z,34.25
2022-08-22T12:55:28.054Z,33.29
2022-08-22T12:56:28.029Z,32.65
2022-08-22T12:57:28.031Z,32.43
2022-08-22T12:58:33.089Z,32.38
2022-08-22T12:59:28.016Z,31.44
2022-08-22T13:00:29.449Z,31.29
2022-08-22T13:01:34.096Z,30.94
2022-08-22T13:02:27.976Z,30.94
2022-08-22T13:03:27.960Z,30.94
2022-08-22T13:04:33.027Z,30.80
2022-08-22T13:05:27.944Z,30.72
2022-08-22T13:06:27.927Z,30.39
2022-08-22T13:07:27.930Z,30.02
2022-08-22T13:08:27.908Z,30.10
2022-08-22T13:09:28.516Z,30.15
2022-08-22T13:10:27.885Z,30.11
2022-08-22T13:11:27.884Z,30.17
2022-08-22T13:12:27.864Z,30.26
2022-08-22T13:13:31.329Z,30.43
2022-08-22T13:14:27.862Z,30.54
2022-08-22T13:15:27.846Z,30.55
2022-08-22T13:16:27.826Z,30.73
2022-08-22T13:17:27.817Z,30.88
2022-08-22T13:18:30.762Z,31.13
2022-08-22T13:19:27.814Z,31.10
2022-08-22T13:20:27.787Z,31.28
2022-08-22T13:21:31.501Z,31.32
2022-08-22T13:22:27.762Z,31.47
2022-08-22T13:23:27.789Z,31.38
2022-08-22T13:24:39.080Z,31.28
2022-08-22T13:25:27.745Z,30.67
2022-08-22T13:26:34.440Z,30.31
2022-08-22T13:27:30.257Z,30.35
2022-08-22T13:28:27.704Z,30.75
2022-08-22T13:29:27.711Z,31.56
2022-08-22T13:30:27.684Z,31.10
2022-08-22T13:31:27.681Z,30.83
2022-08-22T13:32:27.808Z,30.58
2022-08-22T13:33:27.767Z,30.31
2022-08-22T13:34:27.655Z,30.22
2022-08-22T13:35:27.634Z,30.02
2022-08-22T13:36:27.621Z,30.01
2022-08-22T13:37:27.615Z,30.08
2022-08-22T13:38:27.597Z,30.15
2022-08-22T13:39:27.602Z,30.22
2022-08-22T13:40:27.610Z,30.29
2022-08-22T13:41:27.572Z,30.46
2022-08-22T13:42:29.884Z,30.19
2022-08-22T13:43:27.548Z,29.97
2022-08-22T13:44:27.550Z,30.16
2022-08-22T13:45:27.528Z,30.53
2022-08-22T13:46:28.188Z,30.54
2022-08-22T13:47:27.512Z,30.49
2022-08-22T13:48:28.671Z,30.54
2022-08-22T13:49:27.506Z,30.13
2022-08-22T13:50:27.474Z,30.00
2022-08-22T13:51:27.465Z,29.61
2022-08-22T13:52:29.758Z,29.60
2022-08-22T13:53:27.445Z,29.73
2022-08-22T13:54:27.449Z,29.63
2022-08-22T13:55:28.873Z,29.58
2022-08-22T13:56:27.410Z,29.49
2022-08-22T13:57:27.413Z,29.42
2022-08-22T13:58:27.393Z,29.42
2022-08-22T13:59:49.132Z,29.48
2022-08-22T14:00:29.391Z,29.51
2022-08-22T14:01:28.578Z,29.53
2022-08-22T14:02:31.041Z,29.39
2022-08-22T14:03:27.349Z,29.34
2022-08-22T14:04:32.208Z,29.34
2022-08-22T14:05:27.331Z,29.31
2022-08-22T14:06:36.994Z,29.24
2022-08-22T14:07:27.335Z,29.27
2022-08-22T14:08:27.321Z,29.28
2022-08-22T14:09:30.720Z,28.96
2022-08-22T14:10:27.275Z,28.73
2022-08-22T14:11:27.270Z,28.64
2022-08-22T14:12:27.252Z,28.67
2022-08-22T14:13:27.245Z,28.59
2022-08-22T14:14:27.239Z,28.54
2022-08-22T14:15:33.945Z,28.54
2022-08-22T14:16:27.216Z,28.48
2022-08-22T14:17:27.199Z,28.41
2022-08-22T14:18:30.307Z,28.31
2022-08-22T14:19:27.417Z,28.33
2022-08-22T14:20:32.507Z,28.25
2022-08-22T14:21:27.182Z,28.24
2022-08-22T14:22:31.664Z,28.22
2022-08-22T14:23:27.433Z,28.12
2022-08-22T14:24:27.408Z,28.09
2022-08-22T14:25:27.115Z,28.11
2022-08-22T14:26:33.014Z,28.09
2022-08-22T14:27:27.099Z,28.09
2022-08-22T14:28:27.757Z,28.07
2022-08-22T14:29:27.221Z,28.04
2022-08-22T14:30:27.063Z,27.92
2022-08-22T14:31:27.058Z,27.92
2022-08-22T14:32:30.942Z,27.88
2022-08-22T14:33:27.042Z,27.82
2022-08-22T14:34:27.041Z,27.81
2022-08-22T14:35:35.297Z,27.84
2022-08-22T14:36:27.008Z,27.92
2022-08-22T14:37:27.000Z,27.93
2022-08-22T14:38:27.434Z,27.99
2022-08-22T14:39:26.993Z,28.06
2022-08-22T14:40:27.005Z,28.15
2022-08-22T14:41:26.955Z,28.17
2022-08-22T14:42:27.056Z,28.19
2022-08-22T14:43:26.936Z,28.22
2022-08-22T14:44:26.953Z,28.22
2022-08-22T14:45:26.911Z,28.25
2022-08-22T14:46:26.991Z,28.33
2022-08-22T14:47:54.163Z,28.34
2022-08-22T14:48:30.979Z,28.29
2022-08-22T14:49:26.889Z,28.31
2022-08-22T14:50:26.860Z,28.36
2022-08-22T14:51:26.846Z,28.40
2022-08-22T14:52:29.591Z,28.34
2022-08-22T14:53:26.828Z,28.39
2022-08-22T14:54:29.155Z,28.49
2022-08-22T14:55:26.805Z,28.44
2022-08-22T14:56:26.799Z,28.48
2022-08-22T14:57:26.779Z,28.51
2022-08-22T14:58:27.807Z,28.54
2022-08-22T14:59:26.780Z,28.52
2022-08-22T15:00:28.511Z,28.58
2022-08-22T15:01:26.808Z,28.66
2022-08-22T15:02:26.734Z,28.74
2022-08-22T15:03:26.721Z,28.80
2022-08-22T15:04:26.718Z,28.81
2022-08-22T15:05:26.718Z,28.81
2022-08-22T15:06:26.896Z,28.74
2022-08-22T15:07:26.682Z,28.77
2022-08-22T15:08:27.473Z,28.61
2022-08-22T15:09:26.662Z,28.59
2022-08-22T15:10:26.673Z,28.55
2022-08-22T15:11:26.641Z,28.54
2022-08-22T15:12:26.631Z,28.52
2022-08-22T15:13:29.637Z,28.46
2022-08-22T15:14:26.617Z,28.51
2022-08-22T15:15:26.614Z,28.44
2022-08-22T15:16:26.593Z,28.29
2022-08-22T15:17:26.576Z,28.00
2022-08-22T15:18:26.571Z,27.81
2022-08-22T15:19:27.294Z,27.65
2022-08-22T15:20:28.099Z,27.65
2022-08-22T15:21:26.542Z,27.60
2022-08-22T15:22:27.642Z,27.54
2022-08-22T15:23:26.516Z,27.55
2022-08-22T15:24:26.504Z,27.57
2022-08-22T15:25:26.512Z,27.62
2022-08-22T15:26:26.490Z,27.72
2022-08-22T15:27:26.477Z,27.75
2022-08-22T15:28:26.467Z,27.75
2022-08-22T15:29:26.460Z,27.60
2022-08-22T15:30:26.467Z,27.50
2022-08-22T15:31:26.464Z,27.49
2022-08-22T15:32:26.636Z,27.50
2022-08-22T15:33:26.413Z,27.57
2022-08-22T15:34:26.407Z,27.50
2022-08-22T15:35:26.408Z,27.51
2022-08-22T15:36:26.385Z,27.50
2022-08-22T15:37:26.371Z,27.44
2022-08-22T15:38:27.669Z,27.40
2022-08-22T15:39:26.352Z,27.36
2022-08-22T15:40:26.414Z,27.32
2022-08-22T15:41:31.123Z,27.25
2022-08-22T15:42:26.335Z,27.27
2022-08-22T15:43:26.312Z,27.22
2022-08-22T15:44:32.514Z,27.18
2022-08-22T15:45:26.308Z,27.12
2022-08-22T15:46:26.314Z,27.10
2022-08-22T15:47:27.628Z,27.10
2022-08-22T15:48:26.263Z,27.04
2022-08-22T15:49:26.247Z,27.03
2022-08-22T15:50:26.259Z,26.99
2022-08-22T15:51:26.226Z,26.89
2022-08-22T15:52:26.224Z,26.81
2022-08-22T15:53:26.197Z,26.80
2022-08-22T15:54:26.200Z,26.75
2022-08-22T15:55:26.193Z,26.73
2022-08-22T15:56:26.167Z,26.72
2022-08-22T15:57:26.163Z,26.73
2022-08-22T15:58:26.139Z,26.73
2022-08-22T15:59:26.150Z,26.73
2022-08-22T16:00:27.881Z,26.72
2022-08-22T16:01:26.227Z,26.69
2022-08-22T16:02:26.103Z,26.65
2022-08-22T16:03:26.090Z,26.62
2022-08-22T16:04:26.085Z,26.63
2022-08-22T16:05:26.085Z,26.62
2022-08-22T16:06:26.062Z,26.62
2022-08-22T16:07:26.045Z,26.63
2022-08-22T16:08:26.037Z,26.58
2022-08-22T16:09:26.029Z,26.55
2022-08-22T16:10:26.041Z,26.54
2022-08-22T16:11:28.506Z,26.54
2022-08-22T16:12:25.997Z,26.54
2022-08-22T16:13:25.976Z,26.54
2022-08-22T16:14:25.966Z,26.47
2022-08-22T16:15:25.960Z,26.45
2022-08-22T16:16:25.946Z,26.40
2022-08-22T16:17:25.934Z,26.43
2022-08-22T16:18:25.924Z,26.39
2022-08-22T16:19:25.910Z,26.35
2022-08-22T16:20:25.915Z,26.30
2022-08-22T16:21:25.891Z,26.26
2022-08-22T16:22:25.882Z,26.21
2022-08-22T16:23:25.880Z,26.21
2022-08-22T16:24:25.860Z,26.20
2022-08-22T16:25:25.864Z,26.23
2022-08-22T16:26:25.840Z,26.21
2022-08-22T16:27:25.823Z,26.21
2022-08-22T16:28:54.425Z,26.18
2022-08-22T16:29:25.808Z,26.13
2022-08-22T16:30:25.810Z,26.07
2022-08-22T16:31:25.780Z,26.05
2022-08-22T16:32:25.773Z,26.02
2022-08-22T16:33:25.765Z,25.99
2022-08-22T16:34:26.141Z,25.91
2022-08-22T16:35:25.745Z,25.83
2022-08-22T16:36:25.726Z,25.82
2022-08-22T16:37:25.709Z,25.69
2022-08-22T16:38:25.699Z,25.69
2022-08-22T16:39:25.684Z,25.67
2022-08-22T16:40:25.782Z,25.72
2022-08-22T16:41:25.674Z,25.65
2022-08-22T16:42:25.659Z,25.65
2022-08-22T16:43:28.886Z,25.67
2022-08-22T16:44:25.640Z,25.65
2022-08-22T16:45:25.640Z,25.65
2022-08-22T16:46:25.620Z,25.65
2022-08-22T16:47:25.606Z,25.65
2022-08-22T16:48:25.600Z,25.65
2022-08-22T16:49:25.586Z,25.61
2022-08-22T16:50:25.588Z,25.60
2022-08-22T16:51:25.553Z,25.60
2022-08-22T16:52:25.562Z,25.57
2022-08-22T16:53:25.544Z,25.55
2022-08-22T16:54:25.540Z,25.57
2022-08-22T16:55:25.549Z,25.55
2022-08-22T16:56:25.521Z,25.47
2022-08-22T16:57:25.504Z,25.40
2022-08-22T16:58:32.456Z,25.36
2022-08-22T16:59:25.508Z,25.33
2022-08-22T17:00:25.482Z,25.32
2022-08-22T17:01:25.555Z,25.25
2022-08-22T17:02:25.464Z,25.25
2022-08-22T17:03:25.444Z,25.23
2022-08-22T17:04:25.455Z,25.21
2022-08-22T17:05:25.425Z,25.20
2022-08-22T17:06:25.424Z,25.15
2022-08-22T17:07:25.406Z,25.09
2022-08-22T17:08:25.433Z,25.02
2022-08-22T17:09:25.407Z,25.03
2022-08-22T17:10:25.384Z,24.99
2022-08-22T17:11:25.363Z,24.95
2022-08-22T17:12:25.360Z,24.93
2022-08-22T17:13:26.541Z,24.91
2022-08-22T17:14:25.398Z,24.93
2022-08-22T17:15:25.335Z,24.88
2022-08-22T17:16:25.320Z,24.87
2022-08-22T17:17:25.303Z,24.78
2022-08-22T17:18:25.302Z,24.76
2022-08-22T17:19:25.283Z,24.73
2022-08-22T17:20:25.296Z,24.68
2022-08-22T17:21:26.080Z,24.65
2022-08-22T17:22:28.919Z,24.65
2022-08-22T17:23:25.242Z,24.62
2022-08-22T17:24:33.395Z,24.62
2022-08-22T17:25:25.241Z,24.60
2022-08-22T17:26:25.216Z,24.62
2022-08-22T17:27:25.198Z,24.65
2022-08-22T17:28:25.200Z,24.61
2022-08-22T17:29:25.215Z,24.65
2022-08-22T17:30:25.188Z,24.67
2022-08-22T17:31:25.158Z,24.64
2022-08-22T17:32:25.148Z,24.64
2022-08-22T17:33:28.033Z,24.62
2022-08-22T17:34:25.148Z,24.61
2022-08-22T17:35:25.116Z,24.64
2022-08-22T17:36:27.070Z,24.60
2022-08-22T17:37:25.094Z,24.57
2022-08-22T17:38:25.086Z,24.55
2022-08-22T17:39:25.096Z,24.50
2022-08-22T17:40:25.148Z,24.45
2022-08-22T17:41:25.052Z,24.43
2022-08-22T17:42:25.041Z,24.37
2022-08-22T17:43:25.028Z,24.35
2022-08-22T17:44:25.026Z,24.34
2022-08-22T17:45:27.885Z,24.34
2022-08-22T17:46:25.023Z,24.35
2022-08-22T17:47:24.989Z,24.34